Wetterdaten: Woche 12.11.01 - 18.11.01 (KW46)
Datum Zeit Temperatur Luftfeuchte Luftdruck Regenmenge Wind Richtung Taupunkt Windchill
12.11.2001 00:00 -0.7 C 76 % 1011.4 hPa 0.0 l/m 2.6 km/h (1 Bft) SW -4.5 C -1.6 C
12.11.2001 01:00 -0.7 C 75 % 1010.8 hPa 0.0 l/m 4.2 km/h (1 Bft) SW -4.5 C -2.1 C
12.11.2001 02:00 -0.5 C 75 % 1010.2 hPa 0.0 l/m 2.8 km/h (1 Bft) SW -4.5 C -1.3 C
12.11.2001 03:00 -1.0 C 78 % 1009.7 hPa 0.0 l/m 1.1 km/h (0 Bft) SO -4.3 C -1.3 C
12.11.2001 04:00 -1.7 C 89 % 1009.7 hPa 0.0 l/m 0.0 km/h (0 Bft) N -3.3 C -1.7 C
12.11.2001 05:00 -2.3 C 90 % 1009.7 hPa 0.0 l/m 0.0 km/h (0 Bft) N -3.7 C -2.3 C
12.11.2001 06:00 -2.3 C 92 % 1009.7 hPa 0.0 l/m 0.0 km/h (0 Bft) N -3.5 C -2.3 C
12.11.2001 07:00 -2.3 C 91 % 1009.7 hPa 0.0 l/m 0.0 km/h (0 Bft) N -3.6 C -2.3 C
12.11.2001 08:00 -2.1 C 89 % 1009.7 hPa 0.0 l/m 0.1 km/h (0 Bft) N -3.6 C -2.1 C
12.11.2001 09:00 -1.6 C 87 % 1010.6 hPa 0.0 l/m 0.0 km/h (0 Bft) N -3.5 C -1.6 C
12.11.2001 10:00 -1.1 C 84 % 1010.8 hPa 0.0 l/m 0.1 km/h (0 Bft) N -3.4 C -1.1 C
12.11.2001 11:00 0.3 C 81 % 1010.1 hPa 0.0 l/m 0.0 km/h (0 Bft) N -2.6 C 0.3 C
12.11.2001 12:00 2.1 C 69 % 1009.1 hPa 0.0 l/m 0.2 km/h (0 Bft) N -3.0 C 2.1 C
12.11.2001 13:00 3.6 C 59 % 1008.7 hPa 0.0 l/m 2.6 km/h (1 Bft) N-NW -3.6 C 3.3 C
12.11.2001 14:00 3.6 C 61 % 1008.4 hPa 0.0 l/m 3.7 km/h (1 Bft) N-NW -3.1 C 2.9 C
12.11.2001 15:00 3.2 C 63 % 1008.0 hPa 0.0 l/m 3.7 km/h (1 Bft) N-NW -3.2 C 2.5 C
12.11.2001 16:00 2.4 C 69 % 1008.7 hPa 0.0 l/m 0.1 km/h (0 Bft) NW -2.8 C 2.4 C
12.11.2001 17:00 1.8 C 74 % 1008.8 hPa 0.0 l/m 0.2 km/h (0 Bft) SW -2.4 C 1.8 C
12.11.2001 18:00 0.6 C 80 % 1009.7 hPa 0.0 l/m 0.2 km/h (0 Bft) SW -2.5 C 0.6 C
12.11.2001 19:00 0.7 C 82 % 1009.7 hPa 0.0 l/m 0.0 km/h (0 Bft) N -2.0 C 0.7 C
12.11.2001 20:00 0.9 C 84 % 1009.7 hPa 0.0 l/m 0.0 km/h (0 Bft) N -1.6 C 0.9 C
12.11.2001 21:00 1.0 C 85 % 1009.7 hPa 0.0 l/m 0.0 km/h (0 Bft) N -1.3 C 1.0 C
12.11.2001 22:00 0.8 C 86 % 1009.7 hPa 0.0 l/m 0.0 km/h (0 Bft) N -1.2 C 0.8 C
12.11.2001 23:00 1.0 C 83 % 1009.6 hPa 0.0 l/m 0.0 km/h (0 Bft) N -1.6 C 1.0 C
13.11.2001 00:00 1.1 C 82 % 1009.2 hPa 0.0 l/m 0.0 km/h (0 Bft) N -1.6 C 1.1 C
13.11.2001 01:00 1.1 C 79 % 1008.7 hPa 0.0 l/m 0.0 km/h (0 Bft) N -2.0 C 1.1 C
13.11.2001 02:00 1.3 C 81 % 1008.7 hPa 0.0 l/m 0.0 km/h (0 Bft) N -1.7 C 1.3 C
13.11.2001 03:00 1.2 C 85 % 1007.9 hPa 0.0 l/m 0.0 km/h (0 Bft) N -1.0 C 1.2 C
13.11.2001 04:00 0.5 C 89 % 1007.6 hPa 0.3 l/m 0.0 km/h (0 Bft) N -1.1 C 0.5 C
13.11.2001 05:00 -0.2 C 92 % 1007.6 hPa 0.3 l/m 0.0 km/h (0 Bft) N -1.3 C -0.2 C
13.11.2001 06:00 -0.2 C 94 % 1007.5 hPa 0.3 l/m 0.0 km/h (0 Bft) N -1.1 C -0.2 C
13.11.2001 07:00 -0.2 C 94 % 1006.6 hPa 0.3 l/m 0.0 km/h (0 Bft) N -1.0 C -0.2 C
13.11.2001 08:00 0.1 C 94 % 1006.9 hPa 0.6 l/m 0.0 km/h (0 Bft) N -0.7 C 0.1 C
13.11.2001 09:00 0.4 C 94 % 1006.6 hPa 0.3 l/m 0.0 km/h (0 Bft) N -0.4 C 0.4 C
13.11.2001 10:00 1.0 C 94 % 1006.1 hPa 0.0 l/m 0.4 km/h (0 Bft) SW 0.1 C 1.0 C
13.11.2001 11:00 1.5 C 94 % 1006.0 hPa 0.0 l/m 0.2 km/h (0 Bft) N 0.6 C 1.5 C
13.11.2001 12:00 1.7 C 94 % 1005.6 hPa 0.3 l/m 0.0 km/h (0 Bft) N 0.9 C 1.7 C
13.11.2001 13:00 1.9 C 93 % 1005.6 hPa 0.3 l/m 0.2 km/h (0 Bft) SW 1.0 C 1.9 C
13.11.2001 14:00 2.3 C 93 % 1005.6 hPa 0.3 l/m 0.0 km/h (0 Bft) N 1.3 C 2.3 C
13.11.2001 15:00 2.4 C 93 % 1005.8 hPa 0.3 l/m 0.0 km/h (0 Bft) N 1.4 C 2.4 C
13.11.2001 16:00 2.3 C 95 % 1006.6 hPa 0.6 l/m 0.0 km/h (0 Bft) N 1.6 C 2.3 C
13.11.2001 17:00 2.3 C 96 % 1006.9 hPa 1.3 l/m 0.0 km/h (0 Bft) N 1.8 C 2.3 C
13.11.2001 18:00 2.3 C 97 % 1007.6 hPa 0.3 l/m 0.0 km/h (0 Bft) N 1.9 C 2.3 C
13.11.2001 19:00 2.1 C 96 % 1008.5 hPa 0.3 l/m 3.3 km/h (1 Bft) SO 1.6 C 1.3 C
13.11.2001 20:00 2.1 C 90 % 1008.9 hPa 0.3 l/m 0.8 km/h (0 Bft) O-NO 0.6 C 2.0 C
13.11.2001 21:00 1.5 C 88 % 1009.7 hPa 0.3 l/m 2.7 km/h (1 Bft) N-NO -0.2 C 1.0 C
13.11.2001 22:00 1.0 C 90 % 1010.3 hPa 0.0 l/m 0.4 km/h (0 Bft) O-NO -0.5 C 1.0 C
13.11.2001 23:00 0.5 C 91 % 1010.8 hPa 0.3 l/m 0.3 km/h (0 Bft) O-NO -0.8 C 0.5 C
14.11.2001 00:00 0.4 C 94 % 1011.2 hPa 0.0 l/m 0.0 km/h (0 Bft) N -0.5 C 0.4 C
14.11.2001 01:00 0.5 C 93 % 1011.8 hPa 0.0 l/m 1.1 km/h (1 Bft) S-SW -0.5 C 0.2 C
14.11.2001 02:00 0.4 C 93 % 1012.1 hPa 0.0 l/m 0.8 km/h (0 Bft) SW -0.5 C 0.3 C
14.11.2001 03:00 0.1 C 85 % 1012.8 hPa 0.0 l/m 0.7 km/h (0 Bft) N-NO -2.0 C 0.0 C
14.11.2001 04:00 -0.1 C 82 % 1013.3 hPa 0.0 l/m 0.6 km/h (0 Bft) O-NO -2.8 C -0.1 C
14.11.2001 05:00 -0.7 C 81 % 1013.9 hPa 0.0 l/m 0.2 km/h (0 Bft) N-NW -3.7 C -0.7 C
14.11.2001 06:00 -1.5 C 83 % 1014.8 hPa 0.0 l/m 0.5 km/h (0 Bft) N -4.0 C -1.5 C
14.11.2001 07:00 -1.5 C 85 % 1015.4 hPa 0.0 l/m 0.0 km/h (0 Bft) N -3.7 C -1.5 C
14.11.2001 08:00 -1.3 C 84 % 1016.6 hPa 0.0 l/m 0.1 km/h (0 Bft) N -3.6 C -1.3 C
14.11.2001 09:00 -0.1 C 79 % 1017.2 hPa 0.0 l/m 0.5 km/h (0 Bft) S-SO -3.3 C -0.1 C
14.11.2001 10:00 1.5 C 70 % 1017.7 hPa 0.0 l/m 2.5 km/h (1 Bft) NO -3.3 C 0.9 C
14.11.2001 11:00 2.2 C 68 % 1018.1 hPa 0.0 l/m 5.8 km/h (2 Bft) S -3.0 C 0.7 C
14.11.2001 12:00 2.9 C 62 % 1018.1 hPa 0.0 l/m 3.3 km/h (1 Bft) N-NO -3.7 C 2.3 C
14.11.2001 13:00 2.8 C 59 % 1018.1 hPa 0.0 l/m 3.2 km/h (1 Bft) O -4.3 C 2.1 C
14.11.2001 14:00 3.0 C 59 % 1018.8 hPa 0.0 l/m 7.3 km/h (2 Bft) S-SW -4.3 C 1.3 C
14.11.2001 15:00 2.5 C 61 % 1019.1 hPa 0.0 l/m 4.9 km/h (1 Bft) S-SW -4.4 C 1.4 C
14.11.2001 16:00 1.7 C 64 % 1019.7 hPa 0.0 l/m 0.9 km/h (0 Bft) O -4.4 C 1.6 C
14.11.2001 17:00 0.6 C 72 % 1020.3 hPa 0.0 l/m 0.3 km/h (0 Bft) S -3.9 C 0.5 C
14.11.2001 18:00 0.4 C 74 % 1021.3 hPa 0.0 l/m 0.1 km/h (0 Bft) N-NW -3.8 C 0.4 C
14.11.2001 19:00 -0.1 C 73 % 1022.4 hPa 0.0 l/m 0.3 km/h (0 Bft) O-SO -4.3 C -0.1 C
14.11.2001 20:00 -0.8 C 77 % 1023.3 hPa 0.0 l/m 0.3 km/h (0 Bft) SO -4.4 C -0.9 C
14.11.2001 21:00 -0.3 C 70 % 1023.3 hPa 0.0 l/m 1.9 km/h (1 Bft) NO -5.0 C -0.7 C
14.11.2001 22:00 -0.3 C 71 % 1023.5 hPa 0.0 l/m 2.8 km/h (1 Bft) NO -4.9 C -0.8 C
14.11.2001 23:00 -0.3 C 74 % 1023.8 hPa 0.0 l/m 2.4 km/h (1 Bft) N -4.4 C -0.8 C
15.11.2001 00:00 -0.6 C 74 % 1024.3 hPa 0.0 l/m 4.6 km/h (1 Bft) NO -4.7 C -1.7 C
15.11.2001 01:00 -0.6 C 73 % 1024.3 hPa 0.0 l/m 8.6 km/h (2 Bft) N-NW -4.9 C -3.1 C
15.11.2001 02:00 -0.8 C 73 % 1024.3 hPa 0.0 l/m 3.0 km/h (1 Bft) O-NO -5.0 C -1.4 C
15.11.2001 03:00 -1.1 C 71 % 1024.3 hPa 0.0 l/m 6.9 km/h (2 Bft) SW -5.7 C -3.1 C
15.11.2001 04:00 -1.3 C 71 % 1024.3 hPa 0.0 l/m 2.8 km/h (1 Bft) NW -5.8 C -1.9 C
15.11.2001 05:00 -1.6 C 73 % 1024.3 hPa 0.0 l/m 4.1 km/h (1 Bft) O-SO -5.7 C -2.7 C
15.11.2001 06:00 -1.5 C 73 % 1025.0 hPa 0.0 l/m 2.7 km/h (1 Bft) N-NO -5.7 C -2.1 C
15.11.2001 07:00 -1.6 C 72 % 1025.6 hPa 0.0 l/m 4.0 km/h (1 Bft) NW -5.9 C -2.5 C
15.11.2001 08:00 -1.2 C 69 % 1026.7 hPa 0.0 l/m 6.7 km/h (2 Bft) SW -6.3 C -3.1 C
15.11.2001 09:00 -0.6 C 64 % 1027.4 hPa 0.0 l/m 14.4 km/h (3 Bft) SO -6.6 C -4.4 C
15.11.2001 10:00 0.1 C 63 % 1027.4 hPa 0.0 l/m 11.5 km/h (2 Bft) SO -6.1 C -3.1 C
15.11.2001 11:00 1.2 C 60 % 1027.4 hPa 0.0 l/m 6.3 km/h (2 Bft) O -5.7 C -0.1 C
15.11.2001 12:00 2.3 C 57 % 1026.9 hPa 0.0 l/m 6.9 km/h (2 Bft) S-SW -5.4 C 0.5 C
15.11.2001 13:00 3.4 C 54 % 1026.4 hPa 0.0 l/m 17.8 km/h (3 Bft) S -5.0 C -0.4 C
15.11.2001 14:00 3.7 C 54 % 1026.4 hPa 0.0 l/m 15.1 km/h (3 Bft) S -4.8 C 0.5 C
15.11.2001 15:00 3.2 C 56 % 1026.4 hPa 0.0 l/m 5.8 km/h (2 Bft) O-SO -4.7 C 1.9 C
15.11.2001 16:00 1.9 C 61 % 1026.4 hPa 0.0 l/m 3.9 km/h (1 Bft) O-SO -4.9 C 1.0 C
15.11.2001 17:00 0.6 C 66 % 1026.4 hPa 0.0 l/m 0.4 km/h (0 Bft) O-NO -5.0 C 0.6 C
15.11.2001 18:00 0.4 C 69 % 1027.4 hPa 0.0 l/m 1.4 km/h (1 Bft) NO -4.7 C 0.2 C
15.11.2001 19:00 -0.1 C 72 % 1027.8 hPa 0.0 l/m 2.8 km/h (1 Bft) O -4.6 C -0.8 C
15.11.2001 20:00 -0.7 C 76 % 1028.5 hPa 0.0 l/m 1.4 km/h (1 Bft) NO -4.5 C -1.0 C
15.11.2001 21:00 -1.0 C 77 % 1028.5 hPa 0.0 l/m 5.7 km/h (1 Bft) O-NO -4.5 C -2.5 C
15.11.2001 22:00 -1.4 C 78 % 1028.5 hPa 0.0 l/m 5.3 km/h (1 Bft) O-SO -4.7 C -3.1 C
15.11.2001 23:00 -0.9 C 76 % 1028.5 hPa 0.0 l/m 12.3 km/h (3 Bft) SO -4.6 C -4.4 C
16.11.2001 00:00 -0.6 C 73 % 1029.3 hPa 0.0 l/m 8.0 km/h (2 Bft) O-SO -4.8 C -3.1 C
16.11.2001 01:00 -0.7 C 74 % 1029.5 hPa 0.0 l/m 3.2 km/h (1 Bft) O -4.8 C -1.5 C
16.11.2001 02:00 -1.0 C 75 % 1029.5 hPa 0.0 l/m 9.9 km/h (2 Bft) SO -4.9 C -4.2 C
16.11.2001 03:00 -1.2 C 74 % 1029.5 hPa 0.0 l/m 3.4 km/h (1 Bft) O-NO -5.2 C -2.2 C
16.11.2001 04:00 -1.5 C 75 % 1029.5 hPa 0.0 l/m 1.8 km/h (1 Bft) NO -5.4 C -1.9 C
16.11.2001 05:00 -1.5 C 76 % 1029.5 hPa 0.0 l/m 3.0 km/h (1 Bft) O-NO -5.3 C -2.4 C
16.11.2001 06:00 -1.7 C 76 % 1029.5 hPa 0.0 l/m 0.4 km/h (0 Bft) NO -5.4 C -1.7 C
16.11.2001 07:00 -1.7 C 76 % 1029.7 hPa 0.0 l/m 3.8 km/h (1 Bft) NO -5.3 C -2.8 C
16.11.2001 08:00 -1.5 C 77 % 1030.5 hPa 0.0 l/m 3.1 km/h (1 Bft) O-NO -5.1 C -2.3 C
16.11.2001 09:00 -1.0 C 75 % 1030.5 hPa 0.0 l/m 6.5 km/h (2 Bft) SO -4.9 C -3.1 C
16.11.2001 10:00 -0.7 C 75 % 1031.2 hPa 0.0 l/m 17.0 km/h (3 Bft) SO -4.7 C -5.3 C
16.11.2001 11:00 0.6 C 72 % 1031.5 hPa 0.0 l/m 16.3 km/h (3 Bft) S-SO -3.9 C -3.9 C
16.11.2001 12:00 1.8 C 67 % 1030.7 hPa 0.0 l/m 11.4 km/h (2 Bft) SO -3.6 C -1.4 C
16.11.2001 13:00 2.4 C 68 % 1030.5 hPa 0.0 l/m 13.9 km/h (3 Bft) SO -3.0 C -1.2 C
16.11.2001 14:00 2.7 C 67 % 1030.5 hPa 0.0 l/m 10.9 km/h (2 Bft) O-SO -2.9 C -0.2 C
16.11.2001 15:00 1.2 C 74 % 1030.5 hPa 0.0 l/m 4.4 km/h (1 Bft) O-SO -3.0 C 0.1 C
16.11.2001 16:00 -0.5 C 81 % 1030.5 hPa 0.0 l/m 1.9 km/h (1 Bft) O-SO -3.4 C -1.1 C
16.11.2001 17:00 -1.5 C 86 % 1031.3 hPa 0.0 l/m 3.6 km/h (1 Bft) W -3.6 C -2.4 C
16.11.2001 18:00 -2.2 C 88 % 1031.6 hPa 0.0 l/m 4.5 km/h (1 Bft) O-SO -3.9 C -3.1 C
16.11.2001 19:00 -3.0 C 90 % 1031.6 hPa 0.0 l/m 1.7 km/h (1 Bft) O-SO -4.4 C -3.4 C
16.11.2001 20:00 -2.5 C 91 % 1031.6 hPa 0.0 l/m 1.6 km/h (1 Bft) O-SO -3.7 C -2.8 C
16.11.2001 21:00 -1.4 C 88 % 1031.6 hPa 0.0 l/m 0.0 km/h (0 Bft) N -3.2 C -1.4 C
16.11.2001 22:00 -1.2 C 87 % 1031.6 hPa 0.0 l/m 0.0 km/h (0 Bft) N -3.0 C -1.2 C
16.11.2001 23:00 -0.9 C 87 % 1031.6 hPa 0.0 l/m 0.0 km/h (0 Bft) N -2.9 C -0.9 C
17.11.2001 00:00 -0.6 C 86 % 1031.4 hPa 0.0 l/m 0.0 km/h (0 Bft) N -2.7 C -0.6 C
17.11.2001 01:00 -0.3 C 87 % 1030.7 hPa 0.0 l/m 0.7 km/h (0 Bft) S -2.2 C -0.5 C
17.11.2001 02:00 0.0 C 86 % 1030.5 hPa 0.0 l/m 0.0 km/h (0 Bft) N -2.1 C 0.0 C
17.11.2001 03:00 0.4 C 84 % 1030.4 hPa 0.0 l/m 3.0 km/h (1 Bft) O-SO -2.0 C -0.3 C
17.11.2001 04:00 0.5 C 85 % 1029.5 hPa 0.0 l/m 1.1 km/h (1 Bft) O-SO -1.8 C 0.5 C
17.11.2001 05:00 0.6 C 84 % 1029.5 hPa 0.0 l/m 0.4 km/h (0 Bft) O-SO -1.8 C 0.5 C
17.11.2001 06:00 0.6 C 85 % 1029.5 hPa 0.0 l/m 0.0 km/h (0 Bft) N -1.6 C 0.6 C
17.11.2001 07:00 0.6 C 85 % 1028.6 hPa 0.0 l/m 0.5 km/h (0 Bft) O-SO -1.6 C 0.6 C
17.11.2001 08:00 0.8 C 84 % 1028.5 hPa 0.0 l/m 0.0 km/h (0 Bft) N -1.6 C 0.8 C
17.11.2001 09:00 1.2 C 81 % 1028.5 hPa 0.0 l/m 0.9 km/h (0 Bft) O-SO -1.7 C 1.1 C
17.11.2001 10:00 1.5 C 79 % 1028.5 hPa 0.0 l/m 8.3 km/h (2 Bft) O-SO -1.7 C -1.0 C
17.11.2001 11:00 1.7 C 79 % 1027.5 hPa 0.0 l/m 7.8 km/h (2 Bft) O-SO -1.7 C -0.6 C
17.11.2001 12:00 1.7 C 78 % 1026.4 hPa 0.0 l/m 6.3 km/h (2 Bft) O-SO -1.7 C 0.0 C
17.11.2001 13:00 1.7 C 77 % 1026.2 hPa 0.0 l/m 3.4 km/h (1 Bft) O-SO -1.8 C 0.8 C
17.11.2001 14:00 1.6 C 77 % 1025.3 hPa 0.0 l/m 3.8 km/h (1 Bft) O-SO -1.9 C 0.5 C
17.11.2001 15:00 1.5 C 78 % 1025.3 hPa 0.0 l/m 2.6 km/h (1 Bft) O-SO -2.0 C 0.9 C
17.11.2001 16:00 1.1 C 78 % 1025.3 hPa 0.0 l/m 5.1 km/h (1 Bft) O-SO -2.4 C -0.2 C
17.11.2001 17:00 0.8 C 79 % 1024.9 hPa 0.0 l/m 6.3 km/h (2 Bft) O-SO -2.4 C -1.0 C
17.11.2001 18:00 0.7 C 80 % 1024.3 hPa 0.0 l/m 1.7 km/h (1 Bft) O-SO -2.4 C 0.5 C
17.11.2001 19:00 0.7 C 79 % 1024.3 hPa 0.0 l/m 0.4 km/h (0 Bft) O-SO -2.5 C 0.6 C
17.11.2001 20:00 0.5 C 80 % 1023.9 hPa 0.0 l/m 0.0 km/h (0 Bft) N -2.6 C 0.5 C
17.11.2001 21:00 0.4 C 81 % 1023.3 hPa 0.0 l/m 0.8 km/h (0 Bft) O-SO -2.5 C 0.3 C
17.11.2001 22:00 0.1 C 80 % 1023.3 hPa 0.0 l/m 1.2 km/h (1 Bft) O-SO -2.9 C -0.0 C
17.11.2001 23:00 0.1 C 81 % 1022.9 hPa 0.0 l/m 2.1 km/h (1 Bft) O-SO -2.8 C -0.3 C
18.11.2001 00:00 0.1 C 82 % 1022.2 hPa 0.0 l/m 0.6 km/h (0 Bft) O -2.6 C 0.1 C
18.11.2001 01:00 0.1 C 84 % 1022.2 hPa 0.0 l/m 0.5 km/h (0 Bft) O-SO -2.3 C -0.1 C
18.11.2001 02:00 -0.3 C 85 % 1021.7 hPa 0.0 l/m 0.1 km/h (0 Bft) N -2.5 C -0.3 C
18.11.2001 03:00 -0.3 C 86 % 1021.2 hPa 0.0 l/m 2.8 km/h (1 Bft) O -2.4 C -1.1 C
18.11.2001 04:00 -0.3 C 85 % 1020.5 hPa 0.0 l/m 1.7 km/h (1 Bft) O-SO -2.4 C -0.7 C
18.11.2001 05:00 -0.2 C 85 % 1020.1 hPa 0.0 l/m 2.1 km/h (1 Bft) O-SO -2.5 C -0.8 C
18.11.2001 06:00 -0.3 C 85 % 1019.7 hPa 0.0 l/m 0.4 km/h (0 Bft) O-SO -2.5 C -0.4 C
18.11.2001 07:00 -0.2 C 85 % 1019.1 hPa 0.0 l/m 1.0 km/h (0 Bft) O-SO -2.4 C -0.4 C
18.11.2001 08:00 0.0 C 85 % 1019.1 hPa 0.0 l/m 1.0 km/h (0 Bft) O-SO -2.2 C -0.3 C
18.11.2001 09:00 0.3 C 85 % 1019.1 hPa 0.0 l/m 0.4 km/h (0 Bft) O-SO -1.9 C 0.2 C
18.11.2001 10:00 0.7 C 83 % 1018.4 hPa 0.0 l/m 1.9 km/h (1 Bft) O-SO -1.8 C 0.2 C
18.11.2001 11:00 1.1 C 81 % 1018.1 hPa 0.0 l/m 2.1 km/h (1 Bft) O-SO -1.7 C 0.6 C
18.11.2001 12:00 1.9 C 78 % 1017.4 hPa 0.0 l/m 0.4 km/h (0 Bft) W-NW -1.6 C 1.9 C
18.11.2001 13:00 2.3 C 76 % 1016.4 hPa 0.0 l/m 1.1 km/h (0 Bft) O-SO -1.5 C 2.1 C
18.11.2001 14:00 2.3 C 77 % 1016.0 hPa 0.0 l/m 2.5 km/h (1 Bft) O-SO -1.3 C 1.7 C
18.11.2001 15:00 2.2 C 80 % 1015.4 hPa 0.0 l/m 2.5 km/h (1 Bft) O-SO -1.0 C 1.7 C
18.11.2001 16:00 1.3 C 83 % 1014.9 hPa 0.0 l/m 2.7 km/h (1 Bft) O-SO -1.2 C 0.7 C
18.11.2001 17:00 1.0 C 84 % 1014.9 hPa 0.0 l/m 1.2 km/h (1 Bft) O-SO -1.3 C 0.8 C
18.11.2001 18:00 0.6 C 86 % 1015.6 hPa 0.0 l/m 7.6 km/h (2 Bft) O-SO -1.5 C -1.8 C
18.11.2001 19:00 0.2 C 87 % 1016.0 hPa 0.0 l/m 6.4 km/h (2 Bft) O-SO -1.7 C -1.7 C
18.11.2001 20:00 -0.0 C 88 % 1015.8 hPa 0.0 l/m 3.1 km/h (1 Bft) O-SO -1.8 C -0.9 C
18.11.2001 21:00 0.0 C 89 % 1015.2 hPa 0.0 l/m 2.6 km/h (1 Bft) O-SO -1.5 C -0.5 C
18.11.2001 22:00 0.2 C 89 % 1014.9 hPa 0.0 l/m 4.2 km/h (1 Bft) O-SO -1.3 C -0.8 C
18.11.2001 23:00 0.2 C 89 % 1014.9 hPa 0.0 l/m 4.6 km/h (1 Bft) O-SO -1.4 C -1.3 C
Min-Datum _ 16.11.01 15.11.01 13.11.01 - 12.11.01 - 15.11.01 15.11.01
_ Min-Zeit 19:40 13:57 10:31 - 00:07 - 09:06 09:36
Minimum _ -3.3 C 52 % 1005.6 hPa - 0.0 km/h (0 Bft) - -6.8 C -7.4 C
Max-Datum _ 15.11.01 13.11.01 16.11.01 13.11.01 15.11.01 - 13.11.01 12.11.01
_ Max-Zeit 14:12 17:46 10:22 16:00 14:30 - 17:46 13:12
Maximum _ 3.9 C 97 % 1031.6 hPa 1.3 l/m 31.6 km/h
S (5 Bft)
- 2.0 C 3.8 C
Durchschnitt _ 0.4 C 80 % 1019.5 hPa #6.9 l/m 2.8 km/h (1 Bft) O-SO -2.8 C -0.3 C

Durchschnitt Minimum Temp.0.0 C
Durchschnitt Maximum Temp.0.7 C
© Kaiko 2001